Terminal Aerodrome Forecast
Issued by NWS

Home | Current Version | Previous Version | Text Only | Print | Product List | Glossary On
Versions: 1 2 3 4 5 6 7 8 9 10 11 12 13 14 15 16 17 18 19
000
FTUS43 KMQT 230500
TAFIWD
TAF
KIWD 230523Z 2306/2406 VRB05KT P6SM SCT040
      TEMPO 2306/2308 1SM BR SCT040
     FM231600 36008KT P6SM SCT040
     FM240200 VRB03KT P6SM SKC
      AMD NOT SKED=

USA.gov is the U.S. government's official web portal to all federal, state and local government web resources and services.